sensor_id;sensor_type;location;lat;lon;timestamp;P1;durP1;ratioP1;P2;durP2;ratioP2
26562;SDS011;14217;50.986;5.826;2022-08-19T00:03:59;4.50;;;4.20;;
26562;SDS011;14217;50.986;5.826;2022-08-19T00:09:03;4.90;;;4.13;;
26562;SDS011;14217;50.986;5.826;2022-08-19T00:14:08;3.65;;;3.45;;
26562;SDS011;14217;50.986;5.826;2022-08-19T00:19:11;4.53;;;4.13;;
26562;SDS011;14217;50.986;5.826;2022-08-19T00:24:13;4.13;;;3.83;;
26562;SDS011;14217;50.986;5.826;2022-08-19T00:29:18;4.25;;;3.95;;
26562;SDS011;14217;50.986;5.826;2022-08-19T00:34:22;3.97;;;3.78;;
26562;SDS011;14217;50.986;5.826;2022-08-19T00:39:24;3.53;;;3.33;;
26562;SDS011;14217;50.986;5.826;2022-08-19T00:44:27;4.65;;;4.25;;
26562;SDS011;14217;50.986;5.826;2022-08-19T00:49:31;3.45;;;3.25;;
26562;SDS011;14217;50.986;5.826;2022-08-19T00:54:38;3.60;;;3.40;;
26562;SDS011;14217;50.986;5.826;2022-08-19T00:59:42;4.35;;;4.07;;
26562;SDS011;14217;50.986;5.826;2022-08-19T01:05:03;4.22;;;3.92;;
26562;SDS011;14217;50.986;5.826;2022-08-19T01:10:10;3.80;;;3.50;;
26562;SDS011;14217;50.986;5.826;2022-08-19T01:15:16;5.57;;;5.15;;
26562;SDS011;14217;50.986;5.826;2022-08-19T01:20:21;4.30;;;4.00;;
26562;SDS011;14217;50.986;5.826;2022-08-19T01:25:29;4.05;;;3.75;;
26562;SDS011;14217;50.986;5.826;2022-08-19T01:30:34;4.35;;;4.03;;
26562;SDS011;14217;50.986;5.826;2022-08-19T01:35:37;4.93;;;4.50;;
26562;SDS011;14217;50.986;5.826;2022-08-19T01:40:39;3.90;;;3.60;;
26562;SDS011;14217;50.986;5.826;2022-08-19T01:45:41;4.47;;;4.10;;
26562;SDS011;14217;50.986;5.826;2022-08-19T01:50:43;5.40;;;4.88;;
26562;SDS011;14217;50.986;5.826;2022-08-19T01:55:46;5.03;;;4.70;;
26562;SDS011;14217;50.986;5.826;2022-08-19T02:00:50;4.15;;;3.92;;
26562;SDS011;14217;50.986;5.826;2022-08-19T02:05:59;5.22;;;4.82;;
26562;SDS011;14217;50.986;5.826;2022-08-19T02:11:04;5.68;;;4.88;;
26562;SDS011;14217;50.986;5.826;2022-08-19T02:16:07;4.57;;;4.28;;
26562;SDS011;14217;50.986;5.826;2022-08-19T02:21:09;5.28;;;4.88;;
26562;SDS011;14217;50.986;5.826;2022-08-19T02:26:12;5.45;;;5.05;;
26562;SDS011;14217;50.986;5.826;2022-08-19T02:31:16;5.93;;;5.45;;
26562;SDS011;14217;50.986;5.826;2022-08-19T02:36:19;5.75;;;5.35;;
26562;SDS011;14217;50.986;5.826;2022-08-19T02:41:23;5.85;;;5.47;;
26562;SDS011;14217;50.986;5.826;2022-08-19T02:46:31;5.82;;;5.43;;
26562;SDS011;14217;50.986;5.826;2022-08-19T02:51:38;7.15;;;5.88;;
26562;SDS011;14217;50.986;5.826;2022-08-19T02:56:42;6.85;;;6.45;;
26562;SDS011;14217;50.986;5.826;2022-08-19T03:01:45;6.72;;;6.30;;
26562;SDS011;14217;50.986;5.826;2022-08-19T03:06:47;6.22;;;5.72;;
26562;SDS011;14217;50.986;5.826;2022-08-19T03:11:49;7.88;;;6.00;;
26562;SDS011;14217;50.986;5.826;2022-08-19T03:16:53;6.47;;;5.95;;
26562;SDS011;14217;50.986;5.826;2022-08-19T03:21:55;6.40;;;5.80;;
26562;SDS011;14217;50.986;5.826;2022-08-19T03:26:57;5.53;;;5.13;;
26562;SDS011;14217;50.986;5.826;2022-08-19T03:32:00;6.72;;;6.22;;
26562;SDS011;14217;50.986;5.826;2022-08-19T03:37:07;6.40;;;5.90;;
26562;SDS011;14217;50.986;5.826;2022-08-19T03:42:13;6.15;;;5.75;;
26562;SDS011;14217;50.986;5.826;2022-08-19T03:47:35;5.88;;;5.53;;
26562;SDS011;14217;50.986;5.826;2022-08-19T03:52:38;7.20;;;6.47;;
26562;SDS011;14217;50.986;5.826;2022-08-19T03:57:45;8.00;;;7.00;;
26562;SDS011;14217;50.986;5.826;2022-08-19T04:02:49;6.88;;;6.28;;
26562;SDS011;14217;50.986;5.826;2022-08-19T04:08:00;9.68;;;7.75;;
26562;SDS011;14217;50.986;5.826;2022-08-19T04:13:03;8.70;;;7.88;;
26562;SDS011;14217;50.986;5.826;2022-08-19T04:18:08;8.88;;;8.18;;
26562;SDS011;14217;50.986;5.826;2022-08-19T04:23:11;8.15;;;7.65;;
26562;SDS011;14217;50.986;5.826;2022-08-19T04:28:15;8.20;;;7.60;;
26562;SDS011;14217;50.986;5.826;2022-08-19T04:33:20;8.18;;;7.38;;
26562;SDS011;14217;50.986;5.826;2022-08-19T04:38:28;8.60;;;7.85;;
26562;SDS011;14217;50.986;5.826;2022-08-19T04:43:31;8.45;;;7.78;;
26562;SDS011;14217;50.986;5.826;2022-08-19T04:48:34;8.63;;;8.02;;
26562;SDS011;14217;50.986;5.826;2022-08-19T04:53:44;8.48;;;7.78;;
26562;SDS011;14217;50.986;5.826;2022-08-19T04:58:48;9.20;;;8.32;;
26562;SDS011;14217;50.986;5.826;2022-08-19T05:03:53;8.65;;;7.95;;
26562;SDS011;14217;50.986;5.826;2022-08-19T05:08:55;9.05;;;8.35;;
26562;SDS011;14217;50.986;5.826;2022-08-19T05:13:57;8.73;;;8.02;;
26562;SDS011;14217;50.986;5.826;2022-08-19T05:18:59;9.85;;;9.02;;
26562;SDS011;14217;50.986;5.826;2022-08-19T05:24:22;8.63;;;7.93;;
26562;SDS011;14217;50.986;5.826;2022-08-19T05:29:25;9.02;;;8.30;;
26562;SDS011;14217;50.986;5.826;2022-08-19T05:34:36;7.30;;;6.80;;
26562;SDS011;14217;50.986;5.826;2022-08-19T05:39:39;7.72;;;7.03;;
26562;SDS011;14217;50.986;5.826;2022-08-19T05:44:42;6.57;;;6.10;;
26562;SDS011;14217;50.986;5.826;2022-08-19T05:49:46;7.10;;;6.60;;
26562;SDS011;14217;50.986;5.826;2022-08-19T05:54:51;7.85;;;7.25;;
26562;SDS011;14217;50.986;5.826;2022-08-19T05:59:53;9.77;;;6.47;;
26562;SDS011;14217;50.986;5.826;2022-08-19T06:04:59;7.05;;;6.47;;
26562;SDS011;14217;50.986;5.826;2022-08-19T06:10:01;10.23;;;9.52;;
26562;SDS011;14217;50.986;5.826;2022-08-19T06:15:09;11.55;;;10.40;;
26562;SDS011;14217;50.986;5.826;2022-08-19T06:20:13;10.00;;;9.38;;
26562;SDS011;14217;50.986;5.826;2022-08-19T06:25:16;30.63;;;14.00;;
26562;SDS011;14217;50.986;5.826;2022-08-19T06:30:18;15.95;;;14.45;;
26562;SDS011;14217;50.986;5.826;2022-08-19T06:35:21;16.00;;;14.70;;
26562;SDS011;14217;50.986;5.826;2022-08-19T06:40:23;17.00;;;14.90;;
26562;SDS011;14217;50.986;5.826;2022-08-19T06:45:25;21.00;;;18.77;;
26562;SDS011;14217;50.986;5.826;2022-08-19T06:50:36;21.55;;;13.77;;
26562;SDS011;14217;50.986;5.826;2022-08-19T06:55:41;16.90;;;15.48;;
26562;SDS011;14217;50.986;5.826;2022-08-19T07:00:43;17.73;;;16.13;;
26562;SDS011;14217;50.986;5.826;2022-08-19T07:05:45;17.15;;;15.65;;
26562;SDS011;14217;50.986;5.826;2022-08-19T07:10:47;17.73;;;16.00;;
26562;SDS011;14217;50.986;5.826;2022-08-19T07:15:50;18.35;;;15.48;;
26562;SDS011;14217;50.986;5.826;2022-08-19T07:21:01;12.65;;;11.68;;
26562;SDS011;14217;50.986;5.826;2022-08-19T07:26:19;16.10;;;10.05;;
26562;SDS011;14217;50.986;5.826;2022-08-19T07:31:28;10.98;;;9.98;;
26562;SDS011;14217;50.986;5.826;2022-08-19T07:36:31;17.00;;;11.65;;
26562;SDS011;14217;50.986;5.826;2022-08-19T07:41:34;13.57;;;8.90;;
26562;SDS011;14217;50.986;5.826;2022-08-19T07:46:39;8.82;;;7.68;;
26562;SDS011;14217;50.986;5.826;2022-08-19T07:51:43;7.63;;;6.93;;
26562;SDS011;14217;50.986;5.826;2022-08-19T07:56:51;8.90;;;6.82;;
26562;SDS011;14217;50.986;5.826;2022-08-19T08:01:54;7.88;;;7.18;;
26562;SDS011;14217;50.986;5.826;2022-08-19T08:06:56;7.40;;;6.15;;
26562;SDS011;14217;50.986;5.826;2022-08-19T08:12:22;6.55;;;6.05;;
26562;SDS011;14217;50.986;5.826;2022-08-19T08:17:39;7.10;;;6.13;;
26562;SDS011;14217;50.986;5.826;2022-08-19T08:22:50;5.97;;;5.38;;
26562;SDS011;14217;50.986;5.826;2022-08-19T08:28:10;14.10;;;4.82;;
26562;SDS011;14217;50.986;5.826;2022-08-19T08:33:20;5.78;;;5.18;;
26562;SDS011;14217;50.986;5.826;2022-08-19T08:38:35;5.45;;;3.55;;
26562;SDS011;14217;50.986;5.826;2022-08-19T08:43:40;10.90;;;7.43;;
26562;SDS011;14217;50.986;5.826;2022-08-19T08:54:01;4.82;;;3.00;;
26562;SDS011;14217;50.986;5.826;2022-08-19T08:59:14;4.28;;;3.05;;
26562;SDS011;14217;50.986;5.826;2022-08-19T09:04:22;2.47;;;2.20;;
26562;SDS011;14217;50.986;5.826;2022-08-19T09:09:27;2.30;;;2.10;;
26562;SDS011;14217;50.986;5.826;2022-08-19T09:14:50;4.13;;;2.47;;
26562;SDS011;14217;50.986;5.826;2022-08-19T09:19:59;2.60;;;2.40;;
26562;SDS011;14217;50.986;5.826;2022-08-19T09:25:10;2.72;;;2.38;;
26562;SDS011;14217;50.986;5.826;2022-08-19T09:30:15;4.35;;;3.67;;
26562;SDS011;14217;50.986;5.826;2022-08-19T09:35:20;7.85;;;2.53;;
26562;SDS011;14217;50.986;5.826;2022-08-19T09:40:25;2.30;;;2.10;;
26562;SDS011;14217;50.986;5.826;2022-08-19T09:45:32;7.30;;;2.97;;
26562;SDS011;14217;50.986;5.826;2022-08-19T09:50:34;3.13;;;2.85;;
26562;SDS011;14217;50.986;5.826;2022-08-19T09:55:54;5.13;;;3.78;;
26562;SDS011;14217;50.986;5.826;2022-08-19T10:00:58;4.55;;;4.25;;
26562;SDS011;14217;50.986;5.826;2022-08-19T10:06:02;3.80;;;3.50;;
26562;SDS011;14217;50.986;5.826;2022-08-19T10:11:15;5.60;;;5.07;;
26562;SDS011;14217;50.986;5.826;2022-08-19T10:16:36;8.23;;;4.93;;
26562;SDS011;14217;50.986;5.826;2022-08-19T10:21:40;4.22;;;3.88;;
26562;SDS011;14217;50.986;5.826;2022-08-19T10:26:43;6.88;;;3.53;;
26562;SDS011;14217;50.986;5.826;2022-08-19T10:31:58;5.00;;;4.07;;
26562;SDS011;14217;50.986;5.826;2022-08-19T10:37:04;5.00;;;4.65;;
26562;SDS011;14217;50.986;5.826;2022-08-19T10:42:14;5.20;;;4.65;;
26562;SDS011;14217;50.986;5.826;2022-08-19T10:47:17;5.78;;;5.38;;
26562;SDS011;14217;50.986;5.826;2022-08-19T10:52:26;4.50;;;4.18;;
26562;SDS011;14217;50.986;5.826;2022-08-19T10:57:39;5.45;;;3.85;;
26562;SDS011;14217;50.986;5.826;2022-08-19T11:03:02;5.50;;;4.50;;
26562;SDS011;14217;50.986;5.826;2022-08-19T11:08:04;4.57;;;4.18;;
26562;SDS011;14217;50.986;5.826;2022-08-19T11:13:22;3.70;;;3.40;;
26562;SDS011;14217;50.986;5.826;2022-08-19T11:18:24;3.33;;;2.97;;
26562;SDS011;14217;50.986;5.826;2022-08-19T11:23:27;3.03;;;2.72;;
26562;SDS011;14217;50.986;5.826;2022-08-19T11:28:29;3.53;;;3.22;;
26562;SDS011;14217;50.986;5.826;2022-08-19T11:33:31;3.95;;;3.65;;
26562;SDS011;14217;50.986;5.826;2022-08-19T11:38:34;4.07;;;2.70;;
26562;SDS011;14217;50.986;5.826;2022-08-19T11:43:37;2.97;;;2.67;;
26562;SDS011;14217;50.986;5.826;2022-08-19T11:48:41;15.38;;;3.85;;
26562;SDS011;14217;50.986;5.826;2022-08-19T11:53:43;3.22;;;2.55;;
26562;SDS011;14217;50.986;5.826;2022-08-19T11:58:45;4.55;;;2.42;;
26562;SDS011;14217;50.986;5.826;2022-08-19T12:03:47;2.55;;;2.35;;
26562;SDS011;14217;50.986;5.826;2022-08-19T12:08:51;3.53;;;2.55;;
26562;SDS011;14217;50.986;5.826;2022-08-19T12:13:53;2.33;;;2.13;;
26562;SDS011;14217;50.986;5.826;2022-08-19T12:18:56;4.15;;;2.33;;
26562;SDS011;14217;50.986;5.826;2022-08-19T12:23:59;4.25;;;2.13;;
26562;SDS011;14217;50.986;5.826;2022-08-19T12:29:03;3.10;;;2.20;;
26562;SDS011;14217;50.986;5.826;2022-08-19T12:34:05;1.95;;;1.75;;
26562;SDS011;14217;50.986;5.826;2022-08-19T12:39:09;2.35;;;2.15;;
26562;SDS011;14217;50.986;5.826;2022-08-19T12:44:13;1.85;;;1.73;;
26562;SDS011;14217;50.986;5.826;2022-08-19T12:49:14;2.30;;;1.38;;
26562;SDS011;14217;50.986;5.826;2022-08-19T12:54:37;7.93;;;1.92;;
26562;SDS011;14217;50.986;5.826;2022-08-19T12:59:39;2.22;;;1.63;;
26562;SDS011;14217;50.986;5.826;2022-08-19T13:04:40;1.70;;;1.30;;
26562;SDS011;14217;50.986;5.826;2022-08-19T13:09:42;2.55;;;1.45;;
26562;SDS011;14217;50.986;5.826;2022-08-19T13:14:44;1.85;;;1.17;;
26562;SDS011;14217;50.986;5.826;2022-08-19T13:19:49;2.17;;;1.33;;
26562;SDS011;14217;50.986;5.826;2022-08-19T13:24:52;11.45;;;1.67;;
26562;SDS011;14217;50.986;5.826;2022-08-19T13:29:54;3.35;;;2.00;;
26562;SDS011;14217;50.986;5.826;2022-08-19T13:35:15;2.33;;;0.82;;
26562;SDS011;14217;50.986;5.826;2022-08-19T13:40:20;3.75;;;1.70;;
26562;SDS011;14217;50.986;5.826;2022-08-19T13:45:26;2.53;;;1.10;;
26562;SDS011;14217;50.986;5.826;2022-08-19T13:50:32;1.90;;;1.23;;
26562;SDS011;14217;50.986;5.826;2022-08-19T13:55:34;3.33;;;1.35;;
26562;SDS011;14217;50.986;5.826;2022-08-19T14:00:41;2.30;;;1.20;;
26562;SDS011;14217;50.986;5.826;2022-08-19T14:05:44;1.02;;;0.85;;
26562;SDS011;14217;50.986;5.826;2022-08-19T14:10:48;1.42;;;1.00;;
26562;SDS011;14217;50.986;5.826;2022-08-19T14:15:50;1.92;;;1.42;;
26562;SDS011;14217;50.986;5.826;2022-08-19T14:20:52;5.05;;;1.40;;
26562;SDS011;14217;50.986;5.826;2022-08-19T14:26:02;2.05;;;1.40;;
26562;SDS011;14217;50.986;5.826;2022-08-19T14:31:05;1.92;;;1.33;;
26562;SDS011;14217;50.986;5.826;2022-08-19T14:36:08;7.53;;;1.55;;
26562;SDS011;14217;50.986;5.826;2022-08-19T14:41:17;3.55;;;1.58;;
26562;SDS011;14217;50.986;5.826;2022-08-19T14:46:23;2.55;;;1.27;;
26562;SDS011;14217;50.986;5.826;2022-08-19T14:51:29;4.35;;;1.20;;
26562;SDS011;14217;50.986;5.826;2022-08-19T14:56:32;4.32;;;1.65;;
26562;SDS011;14217;50.986;5.826;2022-08-19T15:01:33;5.68;;;1.65;;
26562;SDS011;14217;50.986;5.826;2022-08-19T15:06:36;6.65;;;1.85;;
26562;SDS011;14217;50.986;5.826;2022-08-19T15:11:38;4.97;;;1.52;;
26562;SDS011;14217;50.986;5.826;2022-08-19T15:16:40;2.45;;;1.65;;
26562;SDS011;14217;50.986;5.826;2022-08-19T15:21:43;3.25;;;1.60;;
26562;SDS011;14217;50.986;5.826;2022-08-19T15:26:45;3.78;;;1.52;;
26562;SDS011;14217;50.986;5.826;2022-08-19T15:31:46;3.70;;;1.67;;
26562;SDS011;14217;50.986;5.826;2022-08-19T15:36:49;1.92;;;1.40;;
26562;SDS011;14217;50.986;5.826;2022-08-19T15:41:51;1.35;;;1.05;;
26562;SDS011;14217;50.986;5.826;2022-08-19T15:46:53;1.75;;;0.90;;
26562;SDS011;14217;50.986;5.826;2022-08-19T15:51:55;2.22;;;1.30;;
26562;SDS011;14217;50.986;5.826;2022-08-19T15:56:58;1.55;;;1.35;;
26562;SDS011;14217;50.986;5.826;2022-08-19T16:02:19;1.75;;;0.98;;
26562;SDS011;14217;50.986;5.826;2022-08-19T16:07:47;1.10;;;0.90;;
26562;SDS011;14217;50.986;5.826;2022-08-19T16:12:49;1.52;;;1.10;;
26562;SDS011;14217;50.986;5.826;2022-08-19T16:17:51;2.42;;;1.25;;
26562;SDS011;14217;50.986;5.826;2022-08-19T16:22:57;15.15;;;1.48;;
26562;SDS011;14217;50.986;5.826;2022-08-19T16:27:59;1.95;;;1.15;;
26562;SDS011;14217;50.986;5.826;2022-08-19T16:33:08;1.25;;;0.98;;
26562;SDS011;14217;50.986;5.826;2022-08-19T16:38:11;1.35;;;1.25;;
26562;SDS011;14217;50.986;5.826;2022-08-19T16:43:12;0.77;;;0.70;;
26562;SDS011;14217;50.986;5.826;2022-08-19T16:48:14;2.58;;;1.15;;
26562;SDS011;14217;50.986;5.826;2022-08-19T16:53:18;2.05;;;1.50;;
26562;SDS011;14217;50.986;5.826;2022-08-19T16:58:21;1.60;;;1.30;;
26562;SDS011;14217;50.986;5.826;2022-08-19T17:03:28;2.70;;;1.58;;
26562;SDS011;14217;50.986;5.826;2022-08-19T17:08:36;3.47;;;1.50;;
26562;SDS011;14217;50.986;5.826;2022-08-19T17:13:39;1.70;;;0.90;;
26562;SDS011;14217;50.986;5.826;2022-08-19T17:18:43;1.73;;;1.63;;
26562;SDS011;14217;50.986;5.826;2022-08-19T17:23:45;1.42;;;1.33;;
26562;SDS011;14217;50.986;5.826;2022-08-19T17:28:48;1.40;;;1.02;;
26562;SDS011;14217;50.986;5.826;2022-08-19T17:33:52;3.55;;;1.50;;
26562;SDS011;14217;50.986;5.826;2022-08-19T17:38:56;2.42;;;1.13;;
26562;SDS011;14217;50.986;5.826;2022-08-19T17:44:00;2.50;;;1.23;;
26562;SDS011;14217;50.986;5.826;2022-08-19T17:49:03;2.00;;;1.45;;
26562;SDS011;14217;50.986;5.826;2022-08-19T17:54:05;1.75;;;1.38;;
26562;SDS011;14217;50.986;5.826;2022-08-19T17:59:09;1.20;;;1.10;;
26562;SDS011;14217;50.986;5.826;2022-08-19T18:04:14;1.30;;;1.20;;
26562;SDS011;14217;50.986;5.826;2022-08-19T18:09:17;2.67;;;1.80;;
26562;SDS011;14217;50.986;5.826;2022-08-19T18:14:21;2.28;;;1.80;;
26562;SDS011;14217;50.986;5.826;2022-08-19T18:19:33;3.33;;;1.60;;
26562;SDS011;14217;50.986;5.826;2022-08-19T18:24:42;1.65;;;1.17;;
26562;SDS011;14217;50.986;5.826;2022-08-19T18:29:46;2.63;;;1.20;;
26562;SDS011;14217;50.986;5.826;2022-08-19T18:34:48;1.50;;;1.30;;
26562;SDS011;14217;50.986;5.826;2022-08-19T18:39:50;3.50;;;1.00;;
26562;SDS011;14217;50.986;5.826;2022-08-19T18:45:10;3.10;;;1.08;;
26562;SDS011;14217;50.986;5.826;2022-08-19T18:50:31;1.55;;;0.73;;
26562;SDS011;14217;50.986;5.826;2022-08-19T18:55:33;1.23;;;1.10;;
26562;SDS011;14217;50.986;5.826;2022-08-19T19:00:35;3.25;;;1.20;;
26562;SDS011;14217;50.986;5.826;2022-08-19T19:05:37;3.47;;;0.95;;
26562;SDS011;14217;50.986;5.826;2022-08-19T19:10:44;13.75;;;1.35;;
26562;SDS011;14217;50.986;5.826;2022-08-19T19:15:50;1.02;;;0.70;;
26562;SDS011;14217;50.986;5.826;2022-08-19T19:20:52;1.50;;;0.85;;
26562;SDS011;14217;50.986;5.826;2022-08-19T19:25:55;1.23;;;0.63;;
26562;SDS011;14217;50.986;5.826;2022-08-19T19:30:57;2.85;;;0.88;;
26562;SDS011;14217;50.986;5.826;2022-08-19T19:35:59;3.33;;;0.80;;
26562;SDS011;14217;50.986;5.826;2022-08-19T19:41:01;1.95;;;1.02;;
26562;SDS011;14217;50.986;5.826;2022-08-19T19:46:04;2.85;;;1.00;;
26562;SDS011;14217;50.986;5.826;2022-08-19T19:51:08;2.50;;;1.13;;
26562;SDS011;14217;50.986;5.826;2022-08-19T19:56:10;7.40;;;1.15;;
26562;SDS011;14217;50.986;5.826;2022-08-19T20:01:13;2.63;;;1.13;;
26562;SDS011;14217;50.986;5.826;2022-08-19T20:06:23;1.60;;;1.20;;
26562;SDS011;14217;50.986;5.826;2022-08-19T20:11:32;2.85;;;0.93;;
26562;SDS011;14217;50.986;5.826;2022-08-19T20:16:36;1.30;;;1.20;;
26562;SDS011;14217;50.986;5.826;2022-08-19T20:21:40;1.13;;;0.93;;
26562;SDS011;14217;50.986;5.826;2022-08-19T20:26:48;3.00;;;1.00;;
26562;SDS011;14217;50.986;5.826;2022-08-19T20:31:54;2.88;;;0.75;;
26562;SDS011;14217;50.986;5.826;2022-08-19T20:37:00;1.90;;;0.82;;
26562;SDS011;14217;50.986;5.826;2022-08-19T20:42:02;1.25;;;0.77;;
26562;SDS011;14217;50.986;5.826;2022-08-19T20:47:04;1.50;;;0.93;;
26562;SDS011;14217;50.986;5.826;2022-08-19T20:52:06;1.50;;;1.02;;
26562;SDS011;14217;50.986;5.826;2022-08-19T20:57:09;2.67;;;1.20;;
26562;SDS011;14217;50.986;5.826;2022-08-19T21:02:11;1.73;;;0.90;;
26562;SDS011;14217;50.986;5.826;2022-08-19T21:07:13;1.55;;;1.10;;
26562;SDS011;14217;50.986;5.826;2022-08-19T21:12:15;2.08;;;1.05;;
26562;SDS011;14217;50.986;5.826;2022-08-19T21:17:18;2.15;;;0.80;;
26562;SDS011;14217;50.986;5.826;2022-08-19T21:22:20;3.13;;;1.13;;
26562;SDS011;14217;50.986;5.826;2022-08-19T21:27:21;2.15;;;0.80;;
26562;SDS011;14217;50.986;5.826;2022-08-19T21:32:23;2.13;;;0.85;;
26562;SDS011;14217;50.986;5.826;2022-08-19T21:37:25;0.60;;;0.60;;
26562;SDS011;14217;50.986;5.826;2022-08-19T21:42:27;0.50;;;0.50;;
26562;SDS011;14217;50.986;5.826;2022-08-19T21:47:29;0.60;;;0.60;;
26562;SDS011;14217;50.986;5.826;2022-08-19T21:52:31;2.03;;;0.80;;
26562;SDS011;14217;50.986;5.826;2022-08-19T21:57:34;4.60;;;0.98;;
26562;SDS011;14217;50.986;5.826;2022-08-19T22:02:36;2.08;;;1.00;;
26562;SDS011;14217;50.986;5.826;2022-08-19T22:07:38;2.63;;;0.85;;
26562;SDS011;14217;50.986;5.826;2022-08-19T22:12:43;1.45;;;0.70;;
26562;SDS011;14217;50.986;5.826;2022-08-19T22:17:52;1.50;;;0.90;;
26562;SDS011;14217;50.986;5.826;2022-08-19T22:22:56;2.05;;;1.00;;
26562;SDS011;14217;50.986;5.826;2022-08-19T22:28:01;2.08;;;0.90;;
26562;SDS011;14217;50.986;5.826;2022-08-19T22:33:07;1.88;;;0.93;;
26562;SDS011;14217;50.986;5.826;2022-08-19T22:38:12;1.55;;;1.02;;
26562;SDS011;14217;50.986;5.826;2022-08-19T22:43:16;1.42;;;0.95;;
26562;SDS011;14217;50.986;5.826;2022-08-19T22:48:21;2.47;;;0.95;;
26562;SDS011;14217;50.986;5.826;2022-08-19T22:53:25;0.65;;;0.60;;
26562;SDS011;14217;50.986;5.826;2022-08-19T22:58:27;1.70;;;0.85;;
26562;SDS011;14217;50.986;5.826;2022-08-19T23:03:30;2.13;;;0.60;;
26562;SDS011;14217;50.986;5.826;2022-08-19T23:08:33;1.52;;;0.70;;
26562;SDS011;14217;50.986;5.826;2022-08-19T23:13:38;0.80;;;0.68;;
26562;SDS011;14217;50.986;5.826;2022-08-19T23:18:41;0.93;;;0.47;;
26562;SDS011;14217;50.986;5.826;2022-08-19T23:23:43;0.60;;;0.60;;
26562;SDS011;14217;50.986;5.826;2022-08-19T23:28:45;0.80;;;0.55;;
26562;SDS011;14217;50.986;5.826;2022-08-19T23:34:06;2.85;;;0.80;;
26562;SDS011;14217;50.986;5.826;2022-08-19T23:39:08;1.25;;;0.73;;
26562;SDS011;14217;50.986;5.826;2022-08-19T23:44:10;0.60;;;0.60;;
26562;SDS011;14217;50.986;5.826;2022-08-19T23:49:15;2.13;;;0.90;;
26562;SDS011;14217;50.986;5.826;2022-08-19T23:54:16;1.15;;;0.80;;
26562;SDS011;14217;50.986;5.826;2022-08-19T23:59:18;1.23;;;0.75;;
